createdAt,value
2017-08-17T00:01:23.446Z,17.50
2017-08-17T00:03:52.218Z,17.50
2017-08-17T00:06:21.290Z,17.50
2017-08-17T00:08:49.579Z,17.50
2017-08-17T00:11:17.912Z,17.40
2017-08-17T00:13:46.246Z,17.40
2017-08-17T00:16:15.805Z,17.40
2017-08-17T00:18:44.083Z,17.40
2017-08-17T00:21:12.432Z,17.30
2017-08-17T00:23:40.755Z,17.30
2017-08-17T00:26:09.048Z,17.30
2017-08-17T00:28:37.752Z,17.30
2017-08-17T00:31:06.808Z,17.20
2017-08-17T00:33:35.854Z,17.10
2017-08-17T00:36:04.278Z,17.10
2017-08-17T00:38:32.547Z,17.10
2017-08-17T00:41:01.816Z,17.00
2017-08-17T00:43:30.892Z,16.90
2017-08-17T00:45:59.911Z,17.00
2017-08-17T00:48:29.026Z,16.90
2017-08-17T00:50:58.103Z,16.80
2017-08-17T00:53:26.796Z,16.80
2017-08-17T00:55:55.121Z,16.80
2017-08-17T00:58:23.473Z,16.80
2017-08-17T01:00:52.578Z,16.70
2017-08-17T01:03:21.648Z,16.60
2017-08-17T01:05:50.329Z,16.70
2017-08-17T01:08:19.343Z,16.60
2017-08-17T01:10:47.683Z,16.60
2017-08-17T01:13:16.116Z,16.60
2017-08-17T01:15:44.471Z,16.60
2017-08-17T01:18:13.076Z,16.50
2017-08-17T01:20:41.410Z,16.50
2017-08-17T01:23:10.263Z,16.60
2017-08-17T01:25:39.640Z,16.60
2017-08-17T01:28:07.959Z,16.60
2017-08-17T01:30:36.639Z,16.60
2017-08-17T01:33:04.956Z,16.50
2017-08-17T01:35:34.765Z,16.50
2017-08-17T01:38:04.122Z,16.50
2017-08-17T01:40:32.443Z,16.40
2017-08-17T01:43:00.721Z,16.40
2017-08-17T01:45:29.626Z,16.40
2017-08-17T01:47:58.724Z,16.30
2017-08-17T01:50:28.106Z,16.20
2017-08-17T01:52:56.392Z,16.20
2017-08-17T01:55:24.974Z,16.10
2017-08-17T01:57:53.555Z,16.10
2017-08-17T02:00:21.891Z,16.10
2017-08-17T02:02:50.216Z,16.10
2017-08-17T02:05:18.549Z,16.10
2017-08-17T02:07:47.638Z,16.00
2017-08-17T02:10:16.277Z,16.00
2017-08-17T02:12:44.608Z,16.00
2017-08-17T02:15:12.882Z,16.00
2017-08-17T02:17:41.997Z,16.10
2017-08-17T02:20:11.067Z,16.10
2017-08-17T02:22:39.783Z,16.00
2017-08-17T02:25:09.034Z,16.00
2017-08-17T02:27:38.758Z,16.00
2017-08-17T02:30:08.000Z,16.00
2017-08-17T02:32:36.533Z,15.90
2017-08-17T02:35:05.163Z,15.90
2017-08-17T02:37:34.248Z,15.80
2017-08-17T02:40:02.888Z,15.80
2017-08-17T02:42:31.974Z,15.80
2017-08-17T02:45:01.256Z,15.70
2017-08-17T02:47:29.939Z,15.70
2017-08-17T02:49:58.215Z,15.70
2017-08-17T02:52:26.543Z,15.70
2017-08-17T02:54:54.882Z,15.60
2017-08-17T02:57:23.188Z,15.60
2017-08-17T02:59:51.868Z,15.60
2017-08-17T03:02:21.087Z,15.60
2017-08-17T03:04:49.414Z,15.60
2017-08-17T03:07:17.736Z,15.60
2017-08-17T03:09:46.044Z,15.60
2017-08-17T03:12:14.628Z,15.60
2017-08-17T03:14:42.938Z,15.70
2017-08-17T03:17:11.285Z,15.60
2017-08-17T03:19:40.372Z,15.70
2017-08-17T03:22:09.446Z,15.70
2017-08-17T03:24:38.424Z,15.70
2017-08-17T03:27:06.749Z,15.70
2017-08-17T03:29:35.812Z,15.70
2017-08-17T03:32:04.204Z,15.80
2017-08-17T03:34:32.512Z,15.80
2017-08-17T03:37:02.017Z,15.80
2017-08-17T03:39:30.286Z,15.80
2017-08-17T03:41:58.600Z,15.90
2017-08-17T03:44:28.009Z,15.80
2017-08-17T03:46:57.055Z,15.70
2017-08-17T03:49:25.391Z,15.70
2017-08-17T03:52:00.459Z,15.60
2017-08-17T03:54:28.775Z,15.60
2017-08-17T03:56:57.119Z,15.60
2017-08-17T03:59:25.453Z,15.60
2017-08-17T04:01:54.234Z,15.50
2017-08-17T04:04:22.551Z,15.50
2017-08-17T04:06:50.861Z,15.50
2017-08-17T04:09:19.177Z,15.40
2017-08-17T04:11:47.598Z,15.40
2017-08-17T04:14:16.973Z,15.30
2017-08-17T04:16:45.357Z,15.30
2017-08-17T04:19:14.733Z,15.40
2017-08-17T04:21:43.050Z,15.40
2017-08-17T04:24:11.311Z,15.40
2017-08-17T04:26:39.905Z,15.40
2017-08-17T04:29:08.186Z,15.40
2017-08-17T04:31:36.500Z,15.40
2017-08-17T04:34:04.797Z,15.50
2017-08-17T04:36:33.106Z,15.60
2017-08-17T04:39:01.720Z,15.60
2017-08-17T04:41:30.021Z,15.70
2017-08-17T04:43:59.157Z,15.70
2017-08-17T04:46:27.816Z,15.80
2017-08-17T04:48:57.022Z,15.90
2017-08-17T04:51:25.325Z,15.90
2017-08-17T04:53:53.669Z,16.00
2017-08-17T04:56:39.828Z,16.10
2017-08-17T04:59:15.060Z,16.20
2017-08-17T05:01:43.376Z,16.30
2017-08-17T05:04:11.969Z,16.40
2017-08-17T05:06:40.247Z,16.50
2017-08-17T05:09:10.118Z,16.60
2017-08-17T05:11:39.038Z,16.60
2017-08-17T05:14:07.373Z,16.70
2017-08-17T05:19:16.089Z,16.90
2017-08-17T05:21:44.366Z,17.00
2017-08-17T05:24:12.763Z,17.10
2017-08-17T05:26:41.511Z,17.20
2017-08-17T05:29:10.257Z,17.30
2017-08-17T05:31:39.666Z,17.50
2017-08-17T05:34:08.741Z,17.60
2017-08-17T05:36:37.049Z,17.60
2017-08-17T05:39:06.430Z,17.90
2017-08-17T05:41:34.718Z,17.80
2017-08-17T05:44:03.016Z,18.00
2017-08-17T05:46:32.088Z,18.10
2017-08-17T05:49:00.407Z,18.10
2017-08-17T05:51:29.063Z,18.20
2017-08-17T05:53:57.373Z,18.30
2017-08-17T05:56:26.414Z,18.50
2017-08-17T05:58:54.740Z,18.50
2017-08-17T06:01:23.040Z,18.60
2017-08-17T06:03:52.723Z,18.80
2017-08-17T06:06:21.941Z,18.80
2017-08-17T06:08:51.504Z,19.00
2017-08-17T06:11:21.508Z,19.00
2017-08-17T06:13:49.809Z,19.10
2017-08-17T06:16:18.420Z,19.10
2017-08-17T06:18:46.755Z,19.20
2017-08-17T06:21:16.033Z,19.30
2017-08-17T06:23:46.239Z,19.50
2017-08-17T06:26:14.534Z,19.50
2017-08-17T06:28:43.130Z,19.60
2017-08-17T06:31:12.220Z,19.70
2017-08-17T06:33:40.862Z,19.70
2017-08-17T06:36:09.642Z,19.80
2017-08-17T06:38:39.483Z,20.00
2017-08-17T06:41:07.783Z,20.00
2017-08-17T06:43:36.112Z,20.10
2017-08-17T06:46:04.420Z,20.20
2017-08-17T06:48:32.991Z,20.30
2017-08-17T06:51:01.319Z,20.20
2017-08-17T06:53:29.590Z,20.20
2017-08-17T06:55:59.127Z,20.20
2017-08-17T06:58:28.794Z,20.20
2017-08-17T07:00:57.100Z,20.30
2017-08-17T07:03:25.674Z,20.40
2017-08-17T07:05:53.971Z,20.50
2017-08-17T07:08:22.276Z,20.50
2017-08-17T07:10:50.621Z,20.50
2017-08-17T07:13:19.031Z,20.50
2017-08-17T07:15:47.608Z,20.70
2017-08-17T07:18:15.915Z,20.80
2017-08-17T07:20:44.288Z,20.90
2017-08-17T07:23:12.605Z,21.00
2017-08-17T07:25:41.656Z,21.10
2017-08-17T08:23:03.950Z,23.50
2017-08-17T08:25:32.245Z,23.60
2017-08-17T08:28:01.610Z,23.60
2017-08-17T08:30:30.981Z,23.80
2017-08-17T08:32:59.643Z,23.80
2017-08-17T08:35:28.777Z,23.90
2017-08-17T08:37:58.197Z,23.90
2017-08-17T08:40:27.269Z,24.40
2017-08-17T08:42:55.598Z,24.40
2017-08-17T08:45:24.211Z,24.70
2017-08-17T08:47:52.483Z,24.70
2017-08-17T08:50:20.803Z,24.90
2017-08-17T08:52:49.169Z,24.60
2017-08-17T08:55:17.481Z,24.60
2017-08-17T08:57:46.152Z,24.70
2017-08-17T09:00:14.443Z,24.90
2017-08-17T09:02:43.106Z,25.00
2017-08-17T09:05:11.811Z,25.00
2017-08-17T09:07:40.130Z,25.10
2017-08-17T09:10:10.393Z,25.50
2017-08-17T09:12:39.769Z,25.50
2017-08-17T09:15:08.400Z,25.40
2017-08-17T09:17:36.978Z,25.70
2017-08-17T09:20:05.267Z,25.80
2017-08-17T09:22:34.709Z,25.60
2017-08-17T09:25:03.111Z,25.60
2017-08-17T09:27:32.464Z,25.60
2017-08-17T09:30:01.035Z,25.60
2017-08-17T09:32:30.000Z,25.40
2017-08-17T09:34:59.624Z,25.70
2017-08-17T09:37:28.384Z,25.90
2017-08-17T09:39:56.739Z,26.20
2017-08-17T09:44:57.940Z,26.60
2017-08-17T09:47:26.198Z,26.50
2017-08-17T09:49:56.024Z,26.70
2017-08-17T09:52:26.200Z,26.90
2017-08-17T09:54:54.508Z,26.90
2017-08-17T09:57:23.541Z,26.80
2017-08-17T10:02:29.661Z,27.10
2017-08-17T10:04:57.971Z,27.50
2017-08-17T10:07:26.276Z,27.70
2017-08-17T10:09:54.849Z,28.10
2017-08-17T10:12:23.164Z,28.60
2017-08-17T10:14:52.220Z,29.00
2017-08-17T10:17:20.615Z,29.00
2017-08-17T10:19:49.128Z,28.80
2017-08-17T10:22:18.520Z,29.60
2017-08-17T10:24:46.798Z,29.50
2017-08-17T10:27:15.096Z,29.80
2017-08-17T10:29:46.158Z,29.20
2017-08-17T10:32:15.237Z,29.30
2017-08-17T10:34:43.520Z,29.30
2017-08-17T10:37:11.841Z,29.80
2017-08-17T10:39:40.108Z,30.00
2017-08-17T10:42:08.752Z,30.80
2017-08-17T10:44:37.058Z,30.80
2017-08-17T10:47:05.353Z,31.50
2017-08-17T10:49:34.441Z,32.20
2017-08-17T10:52:04.815Z,32.10
2017-08-17T10:54:33.459Z,32.10
2017-08-17T10:57:02.420Z,32.60
2017-08-17T10:59:31.214Z,33.80
2017-08-17T11:01:59.812Z,33.50
2017-08-17T11:04:28.138Z,33.50
2017-08-17T11:09:26.302Z,35.00
2017-08-17T11:11:54.646Z,35.90
2017-08-17T11:14:23.942Z,36.20
2017-08-17T11:16:52.610Z,36.10
2017-08-17T11:19:21.745Z,36.00
2017-08-17T11:21:50.030Z,35.90
2017-08-17T11:24:18.662Z,37.10
2017-08-17T11:26:46.910Z,37.50
2017-08-17T11:29:15.268Z,37.30
2017-08-17T11:31:44.584Z,37.60
2017-08-17T11:34:12.885Z,37.20
2017-08-17T11:36:43.036Z,36.70
2017-08-17T11:39:12.137Z,36.80
2017-08-17T11:41:41.157Z,37.50
2017-08-17T11:44:09.518Z,38.60
2017-08-17T11:46:37.833Z,38.30
2017-08-17T11:49:07.153Z,36.80
2017-08-17T11:51:36.584Z,38.50
2017-08-17T11:54:05.306Z,38.50
2017-08-17T11:57:06.999Z,39.10
2017-08-17T11:59:36.894Z,38.90
2017-08-17T12:02:06.270Z,38.90
2017-08-17T12:04:36.415Z,37.40
2017-08-17T12:07:05.578Z,37.50
2017-08-17T12:09:34.177Z,37.50
2017-08-17T12:12:02.514Z,38.40
2017-08-17T12:14:30.806Z,38.60
2017-08-17T12:17:00.528Z,35.50
2017-08-17T12:19:28.805Z,35.40
2017-08-17T12:21:57.148Z,34.40
2017-08-17T12:24:25.725Z,33.00
2017-08-17T12:26:54.174Z,32.60
2017-08-17T12:29:23.903Z,32.00
2017-08-17T12:31:52.214Z,32.00
2017-08-17T12:34:21.879Z,32.00
2017-08-17T12:36:50.279Z,32.00
2017-08-17T12:39:18.586Z,31.50
2017-08-17T12:41:47.167Z,31.40
2017-08-17T12:44:16.354Z,30.90
2017-08-17T12:46:44.643Z,30.70
2017-08-17T12:49:13.332Z,30.80
2017-08-17T12:51:41.624Z,30.90
2017-08-17T12:54:09.940Z,30.90
2017-08-17T12:56:39.404Z,31.00
2017-08-17T12:59:08.732Z,31.00
2017-08-17T13:01:38.122Z,31.70
2017-08-17T13:04:06.498Z,31.40
2017-08-17T13:06:35.941Z,31.60
2017-08-17T13:09:05.321Z,31.20
2017-08-17T13:11:33.673Z,31.20
2017-08-17T13:14:03.487Z,29.30
2017-08-17T13:16:31.795Z,29.30
2017-08-17T13:19:00.586Z,29.10
2017-08-17T13:21:29.281Z,29.00
2017-08-17T13:23:57.606Z,29.00
2017-08-17T13:26:26.044Z,28.80
2017-08-17T13:28:55.252Z,28.90
2017-08-17T13:31:23.596Z,28.80
2017-08-17T13:33:52.731Z,28.60
2017-08-17T13:36:21.091Z,28.70
2017-08-17T13:38:49.729Z,28.60
2017-08-17T13:41:18.049Z,28.60
2017-08-17T13:43:46.676Z,28.70
2017-08-17T13:46:15.383Z,28.70
2017-08-17T13:48:44.984Z,28.70
2017-08-17T13:51:14.815Z,28.90
2017-08-17T13:53:44.781Z,29.60
2017-08-17T13:56:13.056Z,29.50
2017-08-17T13:58:41.652Z,29.60
2017-08-17T14:01:09.967Z,29.50
2017-08-17T14:03:39.175Z,29.70
2017-08-17T14:06:07.758Z,30.10
2017-08-17T14:08:36.359Z,30.30
2017-08-17T14:11:05.143Z,30.80
2017-08-17T14:13:34.567Z,30.10
2017-08-17T14:16:02.876Z,30.10
2017-08-17T14:18:31.949Z,30.40
2017-08-17T14:21:01.129Z,30.40
2017-08-17T14:23:29.810Z,30.70
2017-08-17T14:25:58.099Z,30.70
2017-08-17T14:28:26.478Z,30.90
2017-08-17T14:30:54.776Z,30.70
2017-08-17T14:33:23.868Z,30.60
2017-08-17T14:35:52.432Z,30.90
2017-08-17T14:38:20.845Z,31.10
2017-08-17T14:40:49.854Z,31.50
2017-08-17T14:43:18.177Z,31.90
2017-08-17T14:45:46.512Z,32.00
2017-08-17T14:48:15.203Z,32.50
2017-08-17T15:03:11.419Z,32.50
2017-08-17T15:05:40.436Z,32.50
2017-08-17T15:08:08.772Z,32.20
2017-08-17T15:10:37.586Z,31.60
2017-08-17T15:13:06.230Z,31.30
2017-08-17T15:15:34.723Z,30.60
2017-08-17T15:18:03.075Z,30.30
2017-08-17T15:20:31.405Z,29.90
2017-08-17T15:22:59.742Z,29.50
2017-08-17T15:25:28.444Z,29.50
2017-08-17T15:27:57.137Z,29.50
2017-08-17T15:30:25.470Z,29.40
2017-08-17T15:32:54.220Z,29.10
2017-08-17T15:35:23.328Z,28.70
2017-08-17T15:37:53.380Z,28.70
2017-08-17T15:40:21.696Z,28.60
2017-08-17T15:42:50.059Z,28.70
2017-08-17T15:45:19.256Z,28.80
2017-08-17T15:47:47.541Z,28.70
2017-08-17T15:50:16.736Z,28.50
2017-08-17T15:52:45.031Z,28.30
2017-08-17T15:55:13.422Z,28.20
2017-08-17T15:57:41.830Z,28.00
2017-08-17T16:00:10.127Z,28.00
2017-08-17T16:02:38.796Z,27.90
2017-08-17T16:05:08.564Z,27.80
2017-08-17T16:07:37.381Z,27.70
2017-08-17T16:10:05.708Z,27.60
2017-08-17T16:12:34.002Z,27.70
2017-08-17T16:15:02.629Z,27.70
2017-08-17T16:17:31.015Z,27.80
2017-08-17T16:19:59.560Z,27.90
2017-08-17T16:22:27.853Z,27.70
2017-08-17T16:24:56.148Z,27.70
2017-08-17T16:27:24.750Z,27.70
2017-08-17T16:29:53.198Z,27.70
2017-08-17T16:32:21.513Z,27.80
2017-08-17T16:34:49.878Z,27.70
2017-08-17T16:37:18.184Z,27.60
2017-08-17T16:39:46.774Z,27.40
2017-08-17T16:42:15.944Z,27.40
2017-08-17T16:44:44.230Z,27.20
2017-08-17T16:47:12.542Z,27.10
2017-08-17T16:49:40.830Z,27.20
2017-08-17T16:52:09.504Z,27.10
2017-08-17T16:54:38.624Z,27.10
2017-08-17T16:57:07.105Z,27.10
2017-08-17T16:59:35.685Z,27.10
2017-08-17T17:02:04.483Z,26.90
2017-08-17T17:04:33.377Z,26.90
2017-08-17T17:07:01.707Z,26.90
2017-08-17T17:09:30.754Z,26.70
2017-08-17T17:11:59.465Z,26.60
2017-08-17T17:14:27.757Z,26.60
2017-08-17T17:16:56.835Z,26.50
2017-08-17T17:19:25.146Z,26.50
2017-08-17T17:21:54.190Z,26.50
2017-08-17T17:24:22.827Z,26.50
2017-08-17T17:26:51.890Z,26.40
2017-08-17T17:29:20.187Z,26.40
2017-08-17T17:31:48.486Z,26.30
2017-08-17T17:34:18.182Z,26.20
2017-08-17T17:36:46.780Z,26.20
2017-08-17T17:39:15.814Z,26.10
2017-08-17T17:41:44.140Z,26.00
2017-08-17T17:44:12.483Z,25.90
2017-08-17T17:46:40.820Z,25.80
2017-08-17T17:49:09.421Z,25.70
2017-08-17T17:51:37.707Z,25.70
2017-08-17T17:54:06.795Z,25.60
2017-08-17T17:56:35.088Z,25.50
2017-08-17T17:59:04.203Z,25.50
2017-08-17T18:01:33.498Z,25.50
2017-08-17T18:04:02.193Z,25.50
2017-08-17T18:06:31.394Z,25.40
2017-08-17T18:09:00.742Z,25.40
2017-08-17T18:11:29.053Z,25.40
2017-08-17T18:13:57.356Z,25.30
2017-08-17T18:16:26.466Z,25.20
2017-08-17T18:18:55.544Z,25.20
2017-08-17T18:21:24.136Z,25.20
2017-08-17T18:23:52.508Z,25.20
2017-08-17T18:26:21.510Z,25.20
2017-08-17T18:28:49.846Z,25.10
2017-08-17T18:31:18.134Z,25.10
2017-08-17T18:33:46.965Z,25.20
2017-08-17T18:36:15.251Z,25.10
2017-08-17T18:38:44.695Z,24.50
2017-08-17T18:43:44.005Z,24.20
2017-08-17T18:46:13.085Z,23.70
2017-08-17T18:48:43.002Z,23.70
2017-08-17T18:51:11.300Z,23.40
2017-08-17T18:53:40.672Z,22.80
2017-08-17T18:56:09.109Z,22.80
2017-08-17T18:58:37.397Z,22.40
2017-08-17T19:01:05.700Z,21.90
2017-08-17T19:03:33.991Z,21.50
2017-08-17T19:06:02.356Z,21.30
2017-08-17T19:08:30.669Z,21.20
2017-08-17T19:10:59.997Z,21.20
2017-08-17T19:13:28.672Z,21.20
2017-08-17T19:15:57.139Z,21.20
2017-08-17T19:18:25.442Z,21.20
2017-08-17T19:20:55.803Z,21.20
2017-08-17T19:23:24.881Z,21.20
2017-08-17T19:25:53.219Z,21.20
2017-08-17T19:28:21.537Z,21.30
2017-08-17T19:30:49.838Z,21.30
2017-08-17T19:33:18.463Z,21.40
2017-08-17T19:35:46.796Z,21.40
2017-08-17T19:38:15.987Z,21.40
2017-08-17T19:40:44.389Z,21.40
2017-08-17T19:43:13.089Z,21.40
2017-08-17T19:45:41.732Z,21.50
2017-08-17T19:48:10.162Z,21.50
2017-08-17T19:50:39.216Z,21.50
2017-08-17T19:53:07.632Z,21.50
2017-08-17T19:55:35.934Z,21.60
2017-08-17T19:58:05.315Z,21.60
2017-08-17T20:00:34.520Z,21.50
2017-08-17T20:03:03.638Z,21.60
2017-08-17T20:05:32.734Z,21.60
2017-08-17T20:08:01.810Z,21.60
2017-08-17T20:10:30.403Z,21.60
2017-08-17T20:12:58.816Z,21.60
2017-08-17T20:15:27.904Z,21.60
2017-08-17T20:17:57.002Z,21.60
2017-08-17T20:20:26.097Z,21.50
2017-08-17T20:22:54.770Z,21.50
2017-08-17T20:25:23.876Z,21.50
2017-08-17T20:27:52.387Z,21.50
2017-08-17T20:30:21.491Z,21.40
2017-08-17T20:32:50.769Z,21.40
2017-08-17T20:35:19.669Z,21.40
2017-08-17T20:37:47.946Z,21.40
2017-08-17T20:40:17.280Z,21.40
2017-08-17T20:42:45.623Z,21.40
2017-08-17T20:45:13.930Z,21.40
2017-08-17T20:47:43.252Z,21.40
2017-08-17T20:50:11.567Z,21.40
2017-08-17T20:52:40.262Z,21.40
2017-08-17T20:55:09.205Z,21.40
2017-08-17T20:57:37.485Z,21.30
2017-08-17T21:00:06.892Z,21.30
2017-08-17T21:02:35.216Z,21.30
2017-08-17T21:05:03.514Z,21.30
2017-08-17T21:07:31.839Z,21.40
2017-08-17T21:10:00.966Z,21.40
2017-08-17T21:12:30.367Z,21.40
2017-08-17T21:14:59.433Z,21.40
2017-08-17T21:17:27.744Z,21.40
2017-08-17T21:19:56.100Z,21.40
2017-08-17T21:22:24.385Z,21.30
2017-08-17T21:24:53.059Z,21.30
2017-08-17T21:27:21.396Z,21.30
2017-08-17T21:29:49.748Z,21.20
2017-08-17T21:32:19.609Z,21.10
2017-08-17T21:34:47.883Z,21.10
2017-08-17T21:37:16.471Z,21.10
2017-08-17T21:39:44.763Z,21.10
2017-08-17T21:42:13.052Z,21.10
2017-08-17T21:44:41.472Z,21.00
2017-08-17T21:47:09.765Z,21.00
2017-08-17T21:49:39.166Z,21.00
2017-08-17T21:52:07.469Z,20.90
2017-08-17T21:54:35.797Z,20.90
2017-08-17T21:57:04.137Z,20.90
2017-08-17T21:59:32.448Z,20.90
2017-08-17T22:02:01.839Z,20.90
2017-08-17T22:04:30.140Z,20.80
2017-08-17T22:06:59.918Z,20.80
2017-08-17T22:09:28.241Z,20.80
2017-08-17T22:11:56.956Z,20.80
2017-08-17T22:14:26.040Z,20.80
2017-08-17T22:16:54.360Z,20.80
2017-08-17T22:19:23.493Z,20.90
2017-08-17T22:21:52.556Z,20.80
2017-08-17T22:24:21.642Z,20.70
2017-08-17T22:26:50.725Z,20.70
2017-08-17T22:29:19.036Z,20.70
2017-08-17T22:31:48.439Z,20.60
2017-08-17T22:34:16.754Z,20.60
2017-08-17T22:36:45.046Z,20.50
2017-08-17T22:39:13.708Z,20.50
2017-08-17T22:41:42.812Z,20.50
2017-08-17T22:44:11.887Z,20.50
2017-08-17T22:46:41.081Z,20.40
2017-08-17T22:49:10.004Z,20.40
2017-08-17T22:51:39.406Z,20.40
2017-08-17T22:54:07.691Z,20.40
2017-08-17T22:56:36.794Z,20.30
2017-08-17T22:59:05.084Z,20.30
2017-08-17T23:01:33.395Z,20.30
2017-08-17T23:04:03.238Z,20.30
2017-08-17T23:06:31.603Z,20.20
2017-08-17T23:09:00.228Z,20.20
2017-08-17T23:11:28.515Z,20.10
2017-08-17T23:13:57.603Z,20.00
2017-08-17T23:16:26.480Z,20.00
2017-08-17T23:18:55.617Z,20.00
2017-08-17T23:21:24.299Z,20.00
2017-08-17T23:23:52.606Z,19.90
2017-08-17T23:26:20.938Z,19.90
2017-08-17T23:28:49.299Z,19.90
2017-08-17T23:31:17.574Z,19.80
2017-08-17T23:33:46.209Z,19.80
2017-08-17T23:36:14.807Z,19.80
2017-08-17T23:38:43.512Z,19.80
2017-08-17T23:41:12.675Z,19.70
2017-08-17T23:43:40.999Z,19.70
2017-08-17T23:46:11.094Z,19.70
2017-08-17T23:48:39.422Z,19.70
2017-08-17T23:51:07.718Z,19.70
2017-08-17T23:53:37.631Z,19.60
2017-08-17T23:56:05.945Z,19.60
2017-08-17T23:58:34.689Z,19.60
